Moisie, Canada
Current Conditions -  °F | °C
As of 5:00 PM on Sunday 23 Nov 2014 (Local Time) from CYZV Reporting Station
Broken Clouds Broken Clouds  
Wind Chill: 23°   Ceiling: 17000
Heat Index: 23°   Visibility: 15mi
Dew Point: 12°   Wind: 3mph
Humidity: 63%   Direction: 250°WSW
Pressure: 30.05"   Gusts: NA
Location:  50.19°N, 66.1°W
Report Text: CYZV 232200Z 25003KT 15SM BKN170 M05/M11 A3005 RMK AC7 SLP179
Loading
Personal Weather Stations






























Interactive Weather Map New forecast layout! Learn more

10-Day Weather Forecast

Advertisements
Track Severe Weather on mobile